sensor_id;sensor_type;location;lat;lon;timestamp;P1;durP1;ratioP1;P2;durP2;ratioP2
28934;SDS011;16044;52.726;-2.108;2024-01-06T00:00:42;13.57;;;5.22;;
28934;SDS011;16044;52.726;-2.108;2024-01-06T00:03:16;16.70;;;5.07;;
28934;SDS011;16044;52.726;-2.108;2024-01-06T00:05:46;19.27;;;5.13;;
28934;SDS011;16044;52.726;-2.108;2024-01-06T00:08:17;17.92;;;5.38;;
28934;SDS011;16044;52.726;-2.108;2024-01-06T00:10:50;27.75;;;6.03;;
28934;SDS011;16044;52.726;-2.108;2024-01-06T00:13:20;20.58;;;4.38;;
28934;SDS011;16044;52.726;-2.108;2024-01-06T00:15:50;14.20;;;5.15;;
28934;SDS011;16044;52.726;-2.108;2024-01-06T00:18:21;17.40;;;4.80;;
28934;SDS011;16044;52.726;-2.108;2024-01-06T00:20:51;16.50;;;4.78;;
28934;SDS011;16044;52.726;-2.108;2024-01-06T00:23:22;13.50;;;4.40;;
28934;SDS011;16044;52.726;-2.108;2024-01-06T00:25:55;18.60;;;4.95;;
28934;SDS011;16044;52.726;-2.108;2024-01-06T00:28:26;16.55;;;4.88;;
28934;SDS011;16044;52.726;-2.108;2024-01-06T00:30:56;19.48;;;5.05;;
28934;SDS011;16044;52.726;-2.108;2024-01-06T00:33:27;16.90;;;4.82;;
28934;SDS011;16044;52.726;-2.108;2024-01-06T00:35:58;13.30;;;4.07;;
28934;SDS011;16044;52.726;-2.108;2024-01-06T00:38:28;22.30;;;4.78;;
28934;SDS011;16044;52.726;-2.108;2024-01-06T00:41:01;18.85;;;4.90;;
28934;SDS011;16044;52.726;-2.108;2024-01-06T00:43:32;13.82;;;4.38;;
28934;SDS011;16044;52.726;-2.108;2024-01-06T00:46:03;20.33;;;4.43;;
28934;SDS011;16044;52.726;-2.108;2024-01-06T00:48:33;21.10;;;4.25;;
28934;SDS011;16044;52.726;-2.108;2024-01-06T00:51:03;13.98;;;3.78;;
28934;SDS011;16044;52.726;-2.108;2024-01-06T00:53:34;17.08;;;3.85;;
28934;SDS011;16044;52.726;-2.108;2024-01-06T00:56:07;20.80;;;4.93;;
28934;SDS011;16044;52.726;-2.108;2024-01-06T00:58:37;20.65;;;6.78;;
28934;SDS011;16044;52.726;-2.108;2024-01-06T01:01:08;27.58;;;7.38;;
28934;SDS011;16044;52.726;-2.108;2024-01-06T01:03:38;19.83;;;5.32;;
28934;SDS011;16044;52.726;-2.108;2024-01-06T01:06:09;18.00;;;5.53;;
28934;SDS011;16044;52.726;-2.108;2024-01-06T01:08:39;17.75;;;4.95;;
28934;SDS011;16044;52.726;-2.108;2024-01-06T01:11:12;20.70;;;4.50;;
28934;SDS011;16044;52.726;-2.108;2024-01-06T01:13:43;15.82;;;3.90;;
28934;SDS011;16044;52.726;-2.108;2024-01-06T01:16:13;19.23;;;4.00;;
28934;SDS011;16044;52.726;-2.108;2024-01-06T01:18:43;22.50;;;3.95;;
28934;SDS011;16044;52.726;-2.108;2024-01-06T01:21:11;17.85;;;3.90;;
28934;SDS011;16044;52.726;-2.108;2024-01-06T01:23:43;21.08;;;3.75;;
28934;SDS011;16044;52.726;-2.108;2024-01-06T01:26:16;20.15;;;3.50;;
28934;SDS011;16044;52.726;-2.108;2024-01-06T01:28:47;17.02;;;4.07;;
28934;SDS011;16044;52.726;-2.108;2024-01-06T01:31:17;20.15;;;3.72;;
28934;SDS011;16044;52.726;-2.108;2024-01-06T01:33:48;21.45;;;3.85;;
28934;SDS011;16044;52.726;-2.108;2024-01-06T01:36:19;27.30;;;4.13;;
28934;SDS011;16044;52.726;-2.108;2024-01-06T01:38:49;20.58;;;4.05;;
28934;SDS011;16044;52.726;-2.108;2024-01-06T01:41:22;21.17;;;4.25;;
28934;SDS011;16044;52.726;-2.108;2024-01-06T01:43:52;22.80;;;4.75;;
28934;SDS011;16044;52.726;-2.108;2024-01-06T01:46:25;24.15;;;4.35;;
28934;SDS011;16044;52.726;-2.108;2024-01-06T01:48:57;17.27;;;4.38;;
28934;SDS011;16044;52.726;-2.108;2024-01-06T01:51:31;19.00;;;3.83;;
28934;SDS011;16044;52.726;-2.108;2024-01-06T01:56:38;21.75;;;4.40;;
28934;SDS011;16044;52.726;-2.108;2024-01-06T01:59:11;19.80;;;4.45;;
28934;SDS011;16044;52.726;-2.108;2024-01-06T02:01:42;15.88;;;4.07;;
28934;SDS011;16044;52.726;-2.108;2024-01-06T02:04:13;23.67;;;4.78;;
28934;SDS011;16044;52.726;-2.108;2024-01-06T02:06:44;20.67;;;4.57;;
28934;SDS011;16044;52.726;-2.108;2024-01-06T02:09:15;20.55;;;4.35;;
28934;SDS011;16044;52.726;-2.108;2024-01-06T02:11:48;21.33;;;4.78;;
28934;SDS011;16044;52.726;-2.108;2024-01-06T02:14:18;20.48;;;4.35;;
28934;SDS011;16044;52.726;-2.108;2024-01-06T02:16:49;17.40;;;4.30;;
28934;SDS011;16044;52.726;-2.108;2024-01-06T02:19:19;20.63;;;4.70;;
28934;SDS011;16044;52.726;-2.108;2024-01-06T02:21:52;21.40;;;4.45;;
28934;SDS011;16044;52.726;-2.108;2024-01-06T02:24:23;19.23;;;5.00;;
28934;SDS011;16044;52.726;-2.108;2024-01-06T02:26:54;25.33;;;5.57;;
28934;SDS011;16044;52.726;-2.108;2024-01-06T02:29:24;21.73;;;5.72;;
28934;SDS011;16044;52.726;-2.108;2024-01-06T02:31:55;24.38;;;5.97;;
28934;SDS011;16044;52.726;-2.108;2024-01-06T02:34:25;21.73;;;5.32;;
28934;SDS011;16044;52.726;-2.108;2024-01-06T02:36:58;18.52;;;4.93;;
28934;SDS011;16044;52.726;-2.108;2024-01-06T02:39:29;17.85;;;5.55;;
28934;SDS011;16044;52.726;-2.108;2024-01-06T02:41:59;20.90;;;6.63;;
28934;SDS011;16044;52.726;-2.108;2024-01-06T02:44:30;23.98;;;7.00;;
28934;SDS011;16044;52.726;-2.108;2024-01-06T02:47:00;27.60;;;7.80;;
28934;SDS011;16044;52.726;-2.108;2024-01-06T02:49:30;22.92;;;6.65;;
28934;SDS011;16044;52.726;-2.108;2024-01-06T02:52:04;20.50;;;6.07;;
28934;SDS011;16044;52.726;-2.108;2024-01-06T02:54:35;29.93;;;6.87;;
28934;SDS011;16044;52.726;-2.108;2024-01-06T02:57:05;20.17;;;6.13;;
28934;SDS011;16044;52.726;-2.108;2024-01-06T02:59:35;20.17;;;5.68;;
28934;SDS011;16044;52.726;-2.108;2024-01-06T03:02:06;27.58;;;7.53;;
28934;SDS011;16044;52.726;-2.108;2024-01-06T03:04:37;31.80;;;9.68;;
28934;SDS011;16044;52.726;-2.108;2024-01-06T03:07:10;17.88;;;6.38;;
28934;SDS011;16044;52.726;-2.108;2024-01-06T03:09:40;17.17;;;5.85;;
28934;SDS011;16044;52.726;-2.108;2024-01-06T03:12:11;21.02;;;5.70;;
28934;SDS011;16044;52.726;-2.108;2024-01-06T03:14:41;19.95;;;5.50;;
28934;SDS011;16044;52.726;-2.108;2024-01-06T03:17:12;18.50;;;4.68;;
28934;SDS011;16044;52.726;-2.108;2024-01-06T03:19:43;27.13;;;6.30;;
28934;SDS011;16044;52.726;-2.108;2024-01-06T03:22:16;18.05;;;5.88;;
28934;SDS011;16044;52.726;-2.108;2024-01-06T03:24:47;26.98;;;6.53;;
28934;SDS011;16044;52.726;-2.108;2024-01-06T03:27:17;22.70;;;8.18;;
28934;SDS011;16044;52.726;-2.108;2024-01-06T03:29:48;22.85;;;8.80;;
28934;SDS011;16044;52.726;-2.108;2024-01-06T03:32:18;19.83;;;8.48;;
28934;SDS011;16044;52.726;-2.108;2024-01-06T03:34:48;30.30;;;8.88;;
28934;SDS011;16044;52.726;-2.108;2024-01-06T03:37:21;27.48;;;6.88;;
28934;SDS011;16044;52.726;-2.108;2024-01-06T03:39:52;17.95;;;6.95;;
28934;SDS011;16044;52.726;-2.108;2024-01-06T03:42:22;27.73;;;7.60;;
28934;SDS011;16044;52.726;-2.108;2024-01-06T03:44:53;21.35;;;6.18;;
28934;SDS011;16044;52.726;-2.108;2024-01-06T03:47:24;22.58;;;6.35;;
28934;SDS011;16044;52.726;-2.108;2024-01-06T03:49:54;26.25;;;7.78;;
28934;SDS011;16044;52.726;-2.108;2024-01-06T03:52:27;20.33;;;7.22;;
28934;SDS011;16044;52.726;-2.108;2024-01-06T03:54:57;17.60;;;7.80;;
28934;SDS011;16044;52.726;-2.108;2024-01-06T03:57:29;21.13;;;7.70;;
28934;SDS011;16044;52.726;-2.108;2024-01-06T03:59:59;24.35;;;7.30;;
28934;SDS011;16044;52.726;-2.108;2024-01-06T04:02:30;26.65;;;7.43;;
28934;SDS011;16044;52.726;-2.108;2024-01-06T04:05:00;24.58;;;8.30;;
28934;SDS011;16044;52.726;-2.108;2024-01-06T04:07:37;29.58;;;7.88;;
28934;SDS011;16044;52.726;-2.108;2024-01-06T04:10:07;25.65;;;8.30;;
28934;SDS011;16044;52.726;-2.108;2024-01-06T04:12:38;21.98;;;7.40;;
28934;SDS011;16044;52.726;-2.108;2024-01-06T04:15:09;27.95;;;7.60;;
28934;SDS011;16044;52.726;-2.108;2024-01-06T04:17:39;24.42;;;7.43;;
28934;SDS011;16044;52.726;-2.108;2024-01-06T04:20:10;18.20;;;6.70;;
28934;SDS011;16044;52.726;-2.108;2024-01-06T04:22:44;37.33;;;8.18;;
28934;SDS011;16044;52.726;-2.108;2024-01-06T04:25:14;23.50;;;7.57;;
28934;SDS011;16044;52.726;-2.108;2024-01-06T04:27:45;22.83;;;7.97;;
28934;SDS011;16044;52.726;-2.108;2024-01-06T04:30:15;20.15;;;7.47;;
28934;SDS011;16044;52.726;-2.108;2024-01-06T04:32:47;22.95;;;7.25;;
28934;SDS011;16044;52.726;-2.108;2024-01-06T04:35:20;20.48;;;7.65;;
28934;SDS011;16044;52.726;-2.108;2024-01-06T04:37:53;23.77;;;8.38;;
28934;SDS011;16044;52.726;-2.108;2024-01-06T04:40:23;23.85;;;7.55;;
28934;SDS011;16044;52.726;-2.108;2024-01-06T04:42:54;21.65;;;8.00;;
28934;SDS011;16044;52.726;-2.108;2024-01-06T04:45:24;29.35;;;7.82;;
28934;SDS011;16044;52.726;-2.108;2024-01-06T04:47:55;24.98;;;7.78;;
28934;SDS011;16044;52.726;-2.108;2024-01-06T04:50:25;27.02;;;8.32;;
28934;SDS011;16044;52.726;-2.108;2024-01-06T04:52:58;23.02;;;7.75;;
28934;SDS011;16044;52.726;-2.108;2024-01-06T04:55:29;33.83;;;10.25;;
28934;SDS011;16044;52.726;-2.108;2024-01-06T04:58:02;32.17;;;11.15;;
28934;SDS011;16044;52.726;-2.108;2024-01-06T05:00:33;31.17;;;11.02;;
28934;SDS011;16044;52.726;-2.108;2024-01-06T05:03:04;33.58;;;11.10;;
28934;SDS011;16044;52.726;-2.108;2024-01-06T05:05:35;34.20;;;11.15;;
28934;SDS011;16044;52.726;-2.108;2024-01-06T05:08:08;30.63;;;10.43;;
28934;SDS011;16044;52.726;-2.108;2024-01-06T05:10:38;28.92;;;10.40;;
28934;SDS011;16044;52.726;-2.108;2024-01-06T05:13:09;27.60;;;9.63;;
28934;SDS011;16044;52.726;-2.108;2024-01-06T05:15:39;39.78;;;10.45;;
28934;SDS011;16044;52.726;-2.108;2024-01-06T05:18:10;27.42;;;9.65;;
28934;SDS011;16044;52.726;-2.108;2024-01-06T05:20:40;29.50;;;9.88;;
28934;SDS011;16044;52.726;-2.108;2024-01-06T05:23:14;36.05;;;9.90;;
28934;SDS011;16044;52.726;-2.108;2024-01-06T05:25:44;24.67;;;9.63;;
28934;SDS011;16044;52.726;-2.108;2024-01-06T05:28:15;30.48;;;9.30;;
28934;SDS011;16044;52.726;-2.108;2024-01-06T05:30:45;22.65;;;8.50;;
28934;SDS011;16044;52.726;-2.108;2024-01-06T05:33:16;26.83;;;8.82;;
28934;SDS011;16044;52.726;-2.108;2024-01-06T05:35:46;20.67;;;9.13;;
28934;SDS011;16044;52.726;-2.108;2024-01-06T05:38:20;28.80;;;9.82;;
28934;SDS011;16044;52.726;-2.108;2024-01-06T05:40:50;20.85;;;8.52;;
28934;SDS011;16044;52.726;-2.108;2024-01-06T05:43:20;35.03;;;10.05;;
28934;SDS011;16044;52.726;-2.108;2024-01-06T05:45:51;26.00;;;9.60;;
28934;SDS011;16044;52.726;-2.108;2024-01-06T05:48:21;24.10;;;10.05;;
28934;SDS011;16044;52.726;-2.108;2024-01-06T05:50:52;23.98;;;9.48;;
28934;SDS011;16044;52.726;-2.108;2024-01-06T05:53:25;23.65;;;9.85;;
28934;SDS011;16044;52.726;-2.108;2024-01-06T05:55:56;39.53;;;11.77;;
28934;SDS011;16044;52.726;-2.108;2024-01-06T05:58:26;28.15;;;10.60;;
28934;SDS011;16044;52.726;-2.108;2024-01-06T06:00:57;26.73;;;11.40;;
28934;SDS011;16044;52.726;-2.108;2024-01-06T06:03:27;27.92;;;12.43;;
28934;SDS011;16044;52.726;-2.108;2024-01-06T06:05:58;33.53;;;11.68;;
28934;SDS011;16044;52.726;-2.108;2024-01-06T06:08:32;38.30;;;13.10;;
28934;SDS011;16044;52.726;-2.108;2024-01-06T06:11:03;39.88;;;13.07;;
28934;SDS011;16044;52.726;-2.108;2024-01-06T06:16:08;38.78;;;12.70;;
28934;SDS011;16044;52.726;-2.108;2024-01-06T06:18:41;42.00;;;13.65;;
28934;SDS011;16044;52.726;-2.108;2024-01-06T06:21:11;31.98;;;12.15;;
28934;SDS011;16044;52.726;-2.108;2024-01-06T06:23:44;32.70;;;12.77;;
28934;SDS011;16044;52.726;-2.108;2024-01-06T06:26:15;32.47;;;11.85;;
28934;SDS011;16044;52.726;-2.108;2024-01-06T06:28:46;34.70;;;12.48;;
28934;SDS011;16044;52.726;-2.108;2024-01-06T06:31:16;39.15;;;13.95;;
28934;SDS011;16044;52.726;-2.108;2024-01-06T06:33:47;24.92;;;11.93;;
28934;SDS011;16044;52.726;-2.108;2024-01-06T06:36:18;38.55;;;13.38;;
28934;SDS011;16044;52.726;-2.108;2024-01-06T06:38:51;37.08;;;13.70;;
28934;SDS011;16044;52.726;-2.108;2024-01-06T06:41:24;31.35;;;12.88;;
28934;SDS011;16044;52.726;-2.108;2024-01-06T06:43:55;38.67;;;15.57;;
28934;SDS011;16044;52.726;-2.108;2024-01-06T06:46:26;38.35;;;14.85;;
28934;SDS011;16044;52.726;-2.108;2024-01-06T06:48:57;32.70;;;13.38;;
28934;SDS011;16044;52.726;-2.108;2024-01-06T06:51:27;39.53;;;14.18;;
28934;SDS011;16044;52.726;-2.108;2024-01-06T06:54:01;31.00;;;12.43;;
28934;SDS011;16044;52.726;-2.108;2024-01-06T06:56:31;31.83;;;11.30;;
28934;SDS011;16044;52.726;-2.108;2024-01-06T06:59:01;29.67;;;12.18;;
28934;SDS011;16044;52.726;-2.108;2024-01-06T07:01:32;30.17;;;12.20;;
28934;SDS011;16044;52.726;-2.108;2024-01-06T07:04:02;21.88;;;10.30;;
28934;SDS011;16044;52.726;-2.108;2024-01-06T07:06:33;37.42;;;12.80;;
28934;SDS011;16044;52.726;-2.108;2024-01-06T07:09:06;53.38;;;12.70;;
28934;SDS011;16044;52.726;-2.108;2024-01-06T07:11:37;91.90;;;13.32;;
28934;SDS011;16044;52.726;-2.108;2024-01-06T07:14:07;127.97;;;16.23;;
28934;SDS011;16044;52.726;-2.108;2024-01-06T07:16:38;47.95;;;11.85;;
28934;SDS011;16044;52.726;-2.108;2024-01-06T07:19:08;27.23;;;10.75;;
28934;SDS011;16044;52.726;-2.108;2024-01-06T07:21:39;64.25;;;12.60;;
28934;SDS011;16044;52.726;-2.108;2024-01-06T07:24:12;151.60;;;17.35;;
28934;SDS011;16044;52.726;-2.108;2024-01-06T07:26:42;49.28;;;12.40;;
28934;SDS011;16044;52.726;-2.108;2024-01-06T07:29:12;192.18;;;18.60;;
28934;SDS011;16044;52.726;-2.108;2024-01-06T07:31:43;151.90;;;17.35;;
28934;SDS011;16044;52.726;-2.108;2024-01-06T07:34:14;143.00;;;16.08;;
28934;SDS011;16044;52.726;-2.108;2024-01-06T07:36:45;50.40;;;13.35;;
28934;SDS011;16044;52.726;-2.108;2024-01-06T07:39:18;140.48;;;16.75;;
28934;SDS011;16044;52.726;-2.108;2024-01-06T07:41:50;48.53;;;13.00;;
28934;SDS011;16044;52.726;-2.108;2024-01-06T07:44:21;40.55;;;12.98;;
28934;SDS011;16044;52.726;-2.108;2024-01-06T07:46:52;83.60;;;15.20;;
28934;SDS011;16044;52.726;-2.108;2024-01-06T07:49:22;74.80;;;14.55;;
28934;SDS011;16044;52.726;-2.108;2024-01-06T07:51:54;98.22;;;16.20;;
28934;SDS011;16044;52.726;-2.108;2024-01-06T07:54:27;94.28;;;15.25;;
28934;SDS011;16044;52.726;-2.108;2024-01-06T07:56:57;78.45;;;15.15;;
28934;SDS011;16044;52.726;-2.108;2024-01-06T07:59:28;49.67;;;12.32;;
28934;SDS011;16044;52.726;-2.108;2024-01-06T08:01:59;135.23;;;16.63;;
28934;SDS011;16044;52.726;-2.108;2024-01-06T08:04:30;86.38;;;13.38;;
28934;SDS011;16044;52.726;-2.108;2024-01-06T08:07:00;57.03;;;14.65;;
28934;SDS011;16044;52.726;-2.108;2024-01-06T08:09:33;26.30;;;12.80;;
28934;SDS011;16044;52.726;-2.108;2024-01-06T08:12:07;28.60;;;13.02;;
28934;SDS011;16044;52.726;-2.108;2024-01-06T08:14:38;33.90;;;14.38;;
28934;SDS011;16044;52.726;-2.108;2024-01-06T08:17:09;27.98;;;13.60;;
28934;SDS011;16044;52.726;-2.108;2024-01-06T08:19:44;32.35;;;14.20;;
28934;SDS011;16044;52.726;-2.108;2024-01-06T08:22:14;35.10;;;14.48;;
28934;SDS011;16044;52.726;-2.108;2024-01-06T08:24:48;41.53;;;16.23;;
28934;SDS011;16044;52.726;-2.108;2024-01-06T08:27:19;52.13;;;17.90;;
28934;SDS011;16044;52.726;-2.108;2024-01-06T08:29:51;48.85;;;16.77;;
28934;SDS011;16044;52.726;-2.108;2024-01-06T08:32:21;51.50;;;16.73;;
28934;SDS011;16044;52.726;-2.108;2024-01-06T08:34:52;58.00;;;17.75;;
28934;SDS011;16044;52.726;-2.108;2024-01-06T08:37:22;67.60;;;19.20;;
28934;SDS011;16044;52.726;-2.108;2024-01-06T08:39:55;110.35;;;22.67;;
28934;SDS011;16044;52.726;-2.108;2024-01-06T08:42:26;84.47;;;20.80;;
28934;SDS011;16044;52.726;-2.108;2024-01-06T08:44:56;119.63;;;21.27;;
28934;SDS011;16044;52.726;-2.108;2024-01-06T08:47:27;84.15;;;19.58;;
28934;SDS011;16044;52.726;-2.108;2024-01-06T08:49:57;68.05;;;19.40;;
28934;SDS011;16044;52.726;-2.108;2024-01-06T08:52:28;74.45;;;19.33;;
28934;SDS011;16044;52.726;-2.108;2024-01-06T08:55:01;109.80;;;21.23;;
28934;SDS011;16044;52.726;-2.108;2024-01-06T08:57:32;162.13;;;21.92;;
28934;SDS011;16044;52.726;-2.108;2024-01-06T09:00:03;48.83;;;16.20;;
28934;SDS011;16044;52.726;-2.108;2024-01-06T09:02:36;61.28;;;17.67;;
28934;SDS011;16044;52.726;-2.108;2024-01-06T09:05:06;151.52;;;21.58;;
28934;SDS011;16044;52.726;-2.108;2024-01-06T09:07:37;123.65;;;21.17;;
28934;SDS011;16044;52.726;-2.108;2024-01-06T09:10:11;149.00;;;21.90;;
28934;SDS011;16044;52.726;-2.108;2024-01-06T09:12:41;106.57;;;19.08;;
28934;SDS011;16044;52.726;-2.108;2024-01-06T09:15:12;108.28;;;19.95;;
28934;SDS011;16044;52.726;-2.108;2024-01-06T09:17:43;134.43;;;19.80;;
28934;SDS011;16044;52.726;-2.108;2024-01-06T09:20:13;125.25;;;19.90;;
28934;SDS011;16044;52.726;-2.108;2024-01-06T09:22:44;92.32;;;18.52;;
28934;SDS011;16044;52.726;-2.108;2024-01-06T09:25:18;72.75;;;16.75;;
28934;SDS011;16044;52.726;-2.108;2024-01-06T09:27:49;54.33;;;16.63;;
28934;SDS011;16044;52.726;-2.108;2024-01-06T09:30:20;111.70;;;20.40;;
28934;SDS011;16044;52.726;-2.108;2024-01-06T09:32:51;41.53;;;15.75;;
28934;SDS011;16044;52.726;-2.108;2024-01-06T09:35:22;48.03;;;15.45;;
28934;SDS011;16044;52.726;-2.108;2024-01-06T09:37:52;144.98;;;20.58;;
28934;SDS011;16044;52.726;-2.108;2024-01-06T09:40:26;47.50;;;16.25;;
28934;SDS011;16044;52.726;-2.108;2024-01-06T09:42:56;39.60;;;14.85;;
28934;SDS011;16044;52.726;-2.108;2024-01-06T09:45:27;146.98;;;23.23;;
28934;SDS011;16044;52.726;-2.108;2024-01-06T09:48:01;26.10;;;10.55;;
28934;SDS011;16044;52.726;-2.108;2024-01-06T09:50:42;109.70;;;20.40;;
28934;SDS011;16044;52.726;-2.108;2024-01-06T09:53:14;137.07;;;21.23;;
28934;SDS011;16044;52.726;-2.108;2024-01-06T09:55:47;54.33;;;18.20;;
28934;SDS011;16044;52.726;-2.108;2024-01-06T09:58:19;83.07;;;22.02;;
28934;SDS011;16044;52.726;-2.108;2024-01-06T10:00:49;49.05;;;17.60;;
28934;SDS011;16044;52.726;-2.108;2024-01-06T10:03:20;49.70;;;19.80;;
28934;SDS011;16044;52.726;-2.108;2024-01-06T10:05:50;41.63;;;16.73;;
28934;SDS011;16044;52.726;-2.108;2024-01-06T10:08:20;45.97;;;18.33;;
28934;SDS011;16044;52.726;-2.108;2024-01-06T10:10:58;37.08;;;16.63;;
28934;SDS011;16044;52.726;-2.108;2024-01-06T10:13:29;39.60;;;17.33;;
28934;SDS011;16044;52.726;-2.108;2024-01-06T10:16:00;42.38;;;17.60;;
28934;SDS011;16044;52.726;-2.108;2024-01-06T10:18:30;37.40;;;17.55;;
28934;SDS011;16044;52.726;-2.108;2024-01-06T10:21:03;44.47;;;17.58;;
28934;SDS011;16044;52.726;-2.108;2024-01-06T10:23:34;51.75;;;18.50;;
28934;SDS011;16044;52.726;-2.108;2024-01-06T10:26:08;48.15;;;19.60;;
28934;SDS011;16044;52.726;-2.108;2024-01-06T10:28:42;46.75;;;18.83;;
28934;SDS011;16044;52.726;-2.108;2024-01-06T10:31:13;46.72;;;18.83;;
28934;SDS011;16044;52.726;-2.108;2024-01-06T10:33:43;49.05;;;19.35;;
28934;SDS011;16044;52.726;-2.108;2024-01-06T10:36:15;45.53;;;17.27;;
28934;SDS011;16044;52.726;-2.108;2024-01-06T10:38:46;43.45;;;17.55;;
28934;SDS011;16044;52.726;-2.108;2024-01-06T10:41:20;47.15;;;19.52;;
28934;SDS011;16044;52.726;-2.108;2024-01-06T10:43:52;59.10;;;19.63;;
28934;SDS011;16044;52.726;-2.108;2024-01-06T10:46:25;47.70;;;21.05;;
28934;SDS011;16044;52.726;-2.108;2024-01-06T10:48:56;56.10;;;21.10;;
28934;SDS011;16044;52.726;-2.108;2024-01-06T10:51:29;62.58;;;21.95;;
28934;SDS011;16044;52.726;-2.108;2024-01-06T10:54:01;53.50;;;19.10;;
28934;SDS011;16044;52.726;-2.108;2024-01-06T10:56:36;55.78;;;18.35;;
28934;SDS011;16044;52.726;-2.108;2024-01-06T10:59:08;46.28;;;17.42;;
28934;SDS011;16044;52.726;-2.108;2024-01-06T11:01:38;44.47;;;17.17;;
28934;SDS011;16044;52.726;-2.108;2024-01-06T11:04:10;48.45;;;15.82;;
28934;SDS011;16044;52.726;-2.108;2024-01-06T11:06:40;48.78;;;15.57;;
28934;SDS011;16044;52.726;-2.108;2024-01-06T11:09:13;55.38;;;15.98;;
28934;SDS011;16044;52.726;-2.108;2024-01-06T11:11:52;57.53;;;16.50;;
28934;SDS011;16044;52.726;-2.108;2024-01-06T11:14:24;47.15;;;14.70;;
28934;SDS011;16044;52.726;-2.108;2024-01-06T11:16:55;59.15;;;15.70;;
28934;SDS011;16044;52.726;-2.108;2024-01-06T11:22:18;46.85;;;15.50;;
28934;SDS011;16044;52.726;-2.108;2024-01-06T11:24:50;36.45;;;15.23;;
28934;SDS011;16044;52.726;-2.108;2024-01-06T11:27:26;41.05;;;15.02;;
28934;SDS011;16044;52.726;-2.108;2024-01-06T11:32:33;38.70;;;14.90;;
28934;SDS011;16044;52.726;-2.108;2024-01-06T11:35:06;39.33;;;14.52;;
28934;SDS011;16044;52.726;-2.108;2024-01-06T11:37:50;48.08;;;15.88;;
28934;SDS011;16044;52.726;-2.108;2024-01-06T11:40:26;44.10;;;14.95;;
28934;SDS011;16044;52.726;-2.108;2024-01-06T11:43:06;31.02;;;12.10;;
28934;SDS011;16044;52.726;-2.108;2024-01-06T11:45:40;27.17;;;9.30;;
28934;SDS011;16044;52.726;-2.108;2024-01-06T11:48:11;28.45;;;9.20;;
28934;SDS011;16044;52.726;-2.108;2024-01-06T11:50:42;26.48;;;8.80;;
28934;SDS011;16044;52.726;-2.108;2024-01-06T11:53:13;21.25;;;8.73;;
28934;SDS011;16044;52.726;-2.108;2024-01-06T11:55:44;29.25;;;10.43;;
28934;SDS011;16044;52.726;-2.108;2024-01-06T11:58:18;29.80;;;9.95;;
28934;SDS011;16044;52.726;-2.108;2024-01-06T12:00:54;28.33;;;9.32;;
28934;SDS011;16044;52.726;-2.108;2024-01-06T12:03:26;31.67;;;9.88;;
28934;SDS011;16044;52.726;-2.108;2024-01-06T12:06:00;29.75;;;9.38;;
28934;SDS011;16044;52.726;-2.108;2024-01-06T12:08:32;11.00;;;6.05;;
28934;SDS011;16044;52.726;-2.108;2024-01-06T12:11:02;26.08;;;9.23;;
28934;SDS011;16044;52.726;-2.108;2024-01-06T12:13:37;26.65;;;9.05;;
28934;SDS011;16044;52.726;-2.108;2024-01-06T12:16:07;23.65;;;8.40;;
28934;SDS011;16044;52.726;-2.108;2024-01-06T12:18:37;21.42;;;8.43;;
28934;SDS011;16044;52.726;-2.108;2024-01-06T12:21:08;22.58;;;8.63;;
28934;SDS011;16044;52.726;-2.108;2024-01-06T12:23:38;22.15;;;7.93;;
28934;SDS011;16044;52.726;-2.108;2024-01-06T12:26:09;24.05;;;6.38;;
28934;SDS011;16044;52.726;-2.108;2024-01-06T12:28:43;13.88;;;5.70;;
28934;SDS011;16044;52.726;-2.108;2024-01-06T12:31:14;19.60;;;5.55;;
28934;SDS011;16044;52.726;-2.108;2024-01-06T12:33:46;18.25;;;7.50;;
28934;SDS011;16044;52.726;-2.108;2024-01-06T12:36:16;17.70;;;5.65;;
28934;SDS011;16044;52.726;-2.108;2024-01-06T12:38:52;14.10;;;5.90;;
28934;SDS011;16044;52.726;-2.108;2024-01-06T12:41:25;13.25;;;5.40;;
28934;SDS011;16044;52.726;-2.108;2024-01-06T12:43:58;15.20;;;5.05;;
28934;SDS011;16044;52.726;-2.108;2024-01-06T12:46:28;14.57;;;5.03;;
28934;SDS011;16044;52.726;-2.108;2024-01-06T12:48:59;12.88;;;4.40;;
28934;SDS011;16044;52.726;-2.108;2024-01-06T12:51:30;21.73;;;4.85;;
28934;SDS011;16044;52.726;-2.108;2024-01-06T12:54:00;15.60;;;4.20;;
28934;SDS011;16044;52.726;-2.108;2024-01-06T12:56:31;13.10;;;4.57;;
28934;SDS011;16044;52.726;-2.108;2024-01-06T12:59:04;12.35;;;4.65;;
28934;SDS011;16044;52.726;-2.108;2024-01-06T13:01:35;17.02;;;5.25;;
28934;SDS011;16044;52.726;-2.108;2024-01-06T13:04:06;13.20;;;5.00;;
28934;SDS011;16044;52.726;-2.108;2024-01-06T13:06:36;21.70;;;5.63;;
28934;SDS011;16044;52.726;-2.108;2024-01-06T13:09:07;16.90;;;5.13;;
28934;SDS011;16044;52.726;-2.108;2024-01-06T13:11:43;12.68;;;4.75;;
28934;SDS011;16044;52.726;-2.108;2024-01-06T13:14:17;23.25;;;7.25;;
28934;SDS011;16044;52.726;-2.108;2024-01-06T13:16:47;15.20;;;4.95;;
28934;SDS011;16044;52.726;-2.108;2024-01-06T13:19:17;18.83;;;4.50;;
28934;SDS011;16044;52.726;-2.108;2024-01-06T13:21:48;14.73;;;4.32;;
28934;SDS011;16044;52.726;-2.108;2024-01-06T13:24:20;14.52;;;5.07;;
28934;SDS011;16044;52.726;-2.108;2024-01-06T13:26:52;11.30;;;4.22;;
28934;SDS011;16044;52.726;-2.108;2024-01-06T13:29:25;11.95;;;4.53;;
28934;SDS011;16044;52.726;-2.108;2024-01-06T13:31:55;14.93;;;4.82;;
28934;SDS011;16044;52.726;-2.108;2024-01-06T13:34:27;20.20;;;4.13;;
28934;SDS011;16044;52.726;-2.108;2024-01-06T13:36:58;12.43;;;4.30;;
28934;SDS011;16044;52.726;-2.108;2024-01-06T13:39:28;17.00;;;4.85;;
28934;SDS011;16044;52.726;-2.108;2024-01-06T13:41:59;17.08;;;4.85;;
28934;SDS011;16044;52.726;-2.108;2024-01-06T13:44:32;12.00;;;4.82;;
28934;SDS011;16044;52.726;-2.108;2024-01-06T13:47:03;12.52;;;5.25;;
28934;SDS011;16044;52.726;-2.108;2024-01-06T13:49:34;20.48;;;5.50;;
28934;SDS011;16044;52.726;-2.108;2024-01-06T13:52:05;46.00;;;26.65;;
28934;SDS011;16044;52.726;-2.108;2024-01-06T13:54:36;13.40;;;6.28;;
28934;SDS011;16044;52.726;-2.108;2024-01-06T13:57:07;15.60;;;6.75;;
28934;SDS011;16044;52.726;-2.108;2024-01-06T13:59:40;17.63;;;6.20;;
28934;SDS011;16044;52.726;-2.108;2024-01-06T14:02:10;17.92;;;8.20;;
28934;SDS011;16044;52.726;-2.108;2024-01-06T14:04:41;22.17;;;9.13;;
28934;SDS011;16044;52.726;-2.108;2024-01-06T14:07:11;20.42;;;6.13;;
28934;SDS011;16044;52.726;-2.108;2024-01-06T14:09:45;18.67;;;6.37;;
28934;SDS011;16044;52.726;-2.108;2024-01-06T14:12:16;16.02;;;5.78;;
28934;SDS011;16044;52.726;-2.108;2024-01-06T14:14:49;22.65;;;6.40;;
28934;SDS011;16044;52.726;-2.108;2024-01-06T14:17:19;14.93;;;6.20;;
28934;SDS011;16044;52.726;-2.108;2024-01-06T14:19:50;17.10;;;7.00;;
28934;SDS011;16044;52.726;-2.108;2024-01-06T14:22:20;17.75;;;7.10;;
28934;SDS011;16044;52.726;-2.108;2024-01-06T14:24:51;17.70;;;6.50;;
28934;SDS011;16044;52.726;-2.108;2024-01-06T14:27:21;22.00;;;6.85;;
28934;SDS011;16044;52.726;-2.108;2024-01-06T14:29:55;16.50;;;7.13;;
28934;SDS011;16044;52.726;-2.108;2024-01-06T14:32:25;16.15;;;7.68;;
28934;SDS011;16044;52.726;-2.108;2024-01-06T14:34:56;17.83;;;7.22;;
28934;SDS011;16044;52.726;-2.108;2024-01-06T14:37:28;16.38;;;7.30;;
28934;SDS011;16044;52.726;-2.108;2024-01-06T14:39:59;20.38;;;7.32;;
28934;SDS011;16044;52.726;-2.108;2024-01-06T14:42:32;19.65;;;7.13;;
28934;SDS011;16044;52.726;-2.108;2024-01-06T14:45:06;12.90;;;6.55;;
28934;SDS011;16044;52.726;-2.108;2024-01-06T14:47:38;16.92;;;6.70;;
28934;SDS011;16044;52.726;-2.108;2024-01-06T14:50:09;11.68;;;6.22;;